createdAt,value
2023-10-12T00:00:35.252Z,74.89
2023-10-12T00:03:23.708Z,75.13
2023-10-12T00:05:54.390Z,75.29
2023-10-12T00:08:35.068Z,75.21
2023-10-12T00:11:08.022Z,75.22
2023-10-12T00:13:42.547Z,74.95
2023-10-12T00:16:11.597Z,74.77
2023-10-12T00:18:40.135Z,74.95
2023-10-12T00:21:16.388Z,74.41
2023-10-12T00:23:47.850Z,74.05
2023-10-12T00:26:16.040Z,74.36
2023-10-12T00:28:46.978Z,74.48
2023-10-12T00:31:19.831Z,74.41
2023-10-12T00:33:49.813Z,74.41
2023-10-12T00:36:23.409Z,74.76
2023-10-12T00:38:54.730Z,75.15
2023-10-12T00:41:25.977Z,75.52
2023-10-12T00:44:07.151Z,75.97
2023-10-12T00:46:55.975Z,75.86
2023-10-12T00:49:27.941Z,75.75
2023-10-12T00:52:17.664Z,75.85
2023-10-12T00:54:51.067Z,76.01
2023-10-12T00:57:19.495Z,76.39
2023-10-12T00:59:48.406Z,76.22
2023-10-12T01:02:18.752Z,76.23
2023-10-12T01:04:50.065Z,76.43
2023-10-12T01:07:21.653Z,76.59
2023-10-12T01:09:55.604Z,77.24
2023-10-12T01:12:31.511Z,77.20
2023-10-12T01:15:05.934Z,77.08
2023-10-12T01:17:36.743Z,77.78
2023-10-12T01:20:13.269Z,77.66
2023-10-12T01:22:41.642Z,77.70
2023-10-12T01:25:20.680Z,77.66
2023-10-12T01:27:49.229Z,77.41
2023-10-12T01:30:23.615Z,77.46
2023-10-12T01:32:59.582Z,77.66
2023-10-12T01:35:34.128Z,77.29
2023-10-12T01:38:03.982Z,76.99
2023-10-12T01:40:46.959Z,76.98
2023-10-12T01:43:15.932Z,76.93
2023-10-12T01:45:45.250Z,76.92
2023-10-12T01:48:17.352Z,77.09
2023-10-12T01:50:45.872Z,77.18
2023-10-12T01:53:33.356Z,77.34
2023-10-12T01:56:04.625Z,77.10
2023-10-12T01:58:37.136Z,77.25
2023-10-12T02:01:08.796Z,77.86
2023-10-12T02:03:44.692Z,78.09
2023-10-12T02:06:18.173Z,77.96
2023-10-12T02:08:47.534Z,77.76
2023-10-12T02:11:36.489Z,78.31
2023-10-12T02:14:05.276Z,78.44
2023-10-12T02:16:34.395Z,78.28
2023-10-12T02:19:07.044Z,78.29
2023-10-12T02:21:39.283Z,78.32
2023-10-12T02:24:13.326Z,78.31
2023-10-12T02:26:53.651Z,78.34
2023-10-12T02:29:22.408Z,78.27
2023-10-12T02:31:59.476Z,78.45
2023-10-12T02:34:31.088Z,79.02
2023-10-12T02:37:17.966Z,78.52
2023-10-12T02:39:48.500Z,78.32
2023-10-12T02:42:19.439Z,78.37
2023-10-12T02:45:07.251Z,78.59
2023-10-12T02:47:35.866Z,78.69
2023-10-12T02:50:24.257Z,78.78
2023-10-12T02:52:54.033Z,78.57
2023-10-12T02:55:27.828Z,78.48
2023-10-12T02:58:01.221Z,78.37
2023-10-12T03:00:40.775Z,78.28
2023-10-12T03:03:25.198Z,78.44
2023-10-12T03:06:00.174Z,78.39
2023-10-12T03:08:32.181Z,78.57
2023-10-12T03:11:12.485Z,78.92
2023-10-12T03:13:43.832Z,79.02
2023-10-12T03:16:23.857Z,79.63
2023-10-12T03:19:02.138Z,79.42
2023-10-12T03:21:34.833Z,79.39
2023-10-12T03:24:06.516Z,79.12
2023-10-12T03:26:35.359Z,79.22
2023-10-12T03:29:19.930Z,79.32
2023-10-12T03:32:08.352Z,79.37
2023-10-12T03:34:37.318Z,79.50
2023-10-12T03:37:15.429Z,80.19
2023-10-12T03:40:00.824Z,80.56
2023-10-12T03:42:49.287Z,80.46
2023-10-12T03:45:28.132Z,80.25
2023-10-12T03:48:08.241Z,80.10
2023-10-12T03:50:55.575Z,80.17
2023-10-12T03:53:28.547Z,79.72
2023-10-12T03:55:59.624Z,80.02
2023-10-12T03:58:28.917Z,80.36
2023-10-12T04:01:09.034Z,80.70
2023-10-12T04:03:38.996Z,80.67
2023-10-12T04:06:17.409Z,80.41
2023-10-12T04:08:52.566Z,80.40
2023-10-12T04:11:41.813Z,80.41
2023-10-12T04:14:21.683Z,80.47
2023-10-12T04:16:58.325Z,80.26
2023-10-12T04:19:34.770Z,80.38
2023-10-12T04:22:16.982Z,80.23
2023-10-12T04:24:47.569Z,80.35
2023-10-12T04:27:30.639Z,80.21
2023-10-12T04:30:00.335Z,80.24
2023-10-12T04:32:48.388Z,80.39
2023-10-12T04:35:22.509Z,80.05
2023-10-12T04:37:50.785Z,80.24
2023-10-12T04:40:31.346Z,80.13
2023-10-12T04:43:06.345Z,80.20
2023-10-12T04:45:57.695Z,80.15
2023-10-12T04:48:32.897Z,80.05
2023-10-12T04:51:02.439Z,80.18
2023-10-12T04:53:50.481Z,80.07
2023-10-12T04:56:19.531Z,80.18
2023-10-12T04:59:07.711Z,80.10
2023-10-12T05:01:55.895Z,80.13
2023-10-12T05:04:42.862Z,80.28
2023-10-12T05:07:28.969Z,80.54
2023-10-12T05:09:57.192Z,80.44
2023-10-12T05:12:25.539Z,80.46
2023-10-12T05:14:56.373Z,80.88
2023-10-12T05:17:24.648Z,81.03
2023-10-12T05:19:54.136Z,80.83
2023-10-12T05:22:22.623Z,81.18
2023-10-12T05:24:53.045Z,81.49
2023-10-12T05:27:24.839Z,81.43
2023-10-12T05:29:53.754Z,81.56
2023-10-12T05:32:38.223Z,81.33
2023-10-12T05:35:06.764Z,81.22
2023-10-12T05:37:49.587Z,81.51
2023-10-12T05:40:18.315Z,81.42
2023-10-12T05:42:48.638Z,81.02
2023-10-12T05:45:29.007Z,80.59
2023-10-12T05:47:57.379Z,80.77
2023-10-12T05:50:25.940Z,80.73
2023-10-12T05:53:00.848Z,80.51
2023-10-12T05:55:29.737Z,80.70
2023-10-12T05:58:10.815Z,80.63
2023-10-12T06:00:46.898Z,80.26
2023-10-12T06:03:18.236Z,80.30
2023-10-12T06:05:46.864Z,80.32
2023-10-12T06:08:17.987Z,80.25
2023-10-12T06:10:47.118Z,80.33
2023-10-12T06:13:16.051Z,80.28
2023-10-12T06:15:51.023Z,80.30
2023-10-12T06:18:31.882Z,80.27
2023-10-12T06:21:00.779Z,80.26
2023-10-12T06:23:30.048Z,80.22
2023-10-12T06:26:06.540Z,80.34
2023-10-12T06:28:35.691Z,80.15
2023-10-12T06:31:07.114Z,80.29
2023-10-12T06:33:41.925Z,80.49
2023-10-12T06:36:17.880Z,80.61
2023-10-12T06:39:03.689Z,80.41
2023-10-12T06:41:51.893Z,80.33
2023-10-12T06:44:26.951Z,80.35
2023-10-12T06:46:58.891Z,80.50
2023-10-12T06:49:30.348Z,80.60
2023-10-12T06:52:05.608Z,80.13
2023-10-12T06:54:41.232Z,79.91
2023-10-12T06:57:30.364Z,79.43
2023-10-12T07:00:18.458Z,79.32
2023-10-12T07:02:52.962Z,79.58
2023-10-12T07:05:22.071Z,79.38
2023-10-12T07:07:52.761Z,79.25
2023-10-12T07:10:31.268Z,79.21
2023-10-12T07:13:01.556Z,78.85
2023-10-12T07:15:34.226Z,78.92
2023-10-12T07:18:08.685Z,78.85
2023-10-12T07:20:42.673Z,78.40
2023-10-12T07:23:16.231Z,78.54
2023-10-12T07:25:49.962Z,78.41
2023-10-12T07:28:33.900Z,78.08
2023-10-12T07:31:12.935Z,77.79
2023-10-12T07:33:53.221Z,77.92
2023-10-12T07:36:37.434Z,77.86
2023-10-12T07:39:23.512Z,77.55
2023-10-12T07:42:02.888Z,77.56
2023-10-12T07:44:39.878Z,77.68
2023-10-12T07:47:24.124Z,77.62
2023-10-12T07:49:52.894Z,76.98
2023-10-12T07:52:24.381Z,77.05
2023-10-12T07:55:00.942Z,76.56
2023-10-12T07:57:32.381Z,76.22
2023-10-12T08:00:20.142Z,76.15
2023-10-12T08:03:08.330Z,75.70
2023-10-12T08:05:44.618Z,75.46
2023-10-12T08:08:33.558Z,75.31
2023-10-12T08:11:24.543Z,74.81
2023-10-12T08:13:56.578Z,74.37
2023-10-12T08:16:29.357Z,74.05
2023-10-12T08:19:17.844Z,74.00
2023-10-12T08:21:46.124Z,73.36
2023-10-12T08:24:24.421Z,73.29
2023-10-12T08:26:59.123Z,73.17
2023-10-12T08:29:47.604Z,73.32
2023-10-12T08:32:17.629Z,72.05
2023-10-12T08:35:05.665Z,71.68
2023-10-12T08:37:55.615Z,71.48
2023-10-12T08:40:28.044Z,71.29
2023-10-12T08:42:59.412Z,70.98
2023-10-12T08:45:28.246Z,70.66
2023-10-12T08:48:03.342Z,70.62
2023-10-12T08:50:48.459Z,69.67
2023-10-12T08:53:21.246Z,69.77
2023-10-12T08:55:52.070Z,69.33
2023-10-12T08:58:40.262Z,69.14
2023-10-12T09:01:11.254Z,69.24
2023-10-12T09:03:45.996Z,67.44
2023-10-12T09:06:30.914Z,67.68
2023-10-12T09:08:59.243Z,68.00
2023-10-12T09:11:34.994Z,67.67
2023-10-12T09:14:16.678Z,67.45
2023-10-12T09:16:45.272Z,66.18
2023-10-12T09:19:30.275Z,65.62
2023-10-12T09:22:01.063Z,65.01
2023-10-12T09:24:36.719Z,64.13
2023-10-12T09:27:15.450Z,64.42
2023-10-12T09:29:59.119Z,64.27
2023-10-12T09:32:29.307Z,63.27
2023-10-12T09:35:01.557Z,63.11
2023-10-12T09:37:34.677Z,62.97
2023-10-12T09:40:05.393Z,62.42
2023-10-12T09:42:36.410Z,60.31
2023-10-12T09:45:18.360Z,60.11
2023-10-12T09:47:59.417Z,58.35
2023-10-12T09:53:21.382Z,58.13
2023-10-12T09:56:04.901Z,57.11
2023-10-12T09:58:34.823Z,57.70
2023-10-12T10:01:03.385Z,56.70
2023-10-12T10:03:39.079Z,56.25
2023-10-12T10:06:21.296Z,55.78
2023-10-12T10:09:11.561Z,53.94
2023-10-12T10:11:40.932Z,54.42
2023-10-12T10:14:14.505Z,54.36
2023-10-12T10:16:49.799Z,53.51
2023-10-12T10:19:19.031Z,52.63
2023-10-12T10:22:12.471Z,52.72
2023-10-12T10:24:49.588Z,51.86
2023-10-12T10:27:19.804Z,50.83
2023-10-12T10:29:54.972Z,50.67
2023-10-12T10:32:31.231Z,50.97
2023-10-12T10:35:14.313Z,48.73
2023-10-12T10:38:00.315Z,49.15
2023-10-12T10:40:49.086Z,47.94
2023-10-12T10:43:17.787Z,48.77
2023-10-12T10:46:07.680Z,48.21
2023-10-12T10:49:07.638Z,48.86
2023-10-12T10:51:30.509Z,48.20
2023-10-12T10:54:00.569Z,46.52
2023-10-12T10:56:38.641Z,45.97
2023-10-12T10:59:08.222Z,45.97
2023-10-12T11:01:36.898Z,46.54
2023-10-12T11:04:09.918Z,45.94
2023-10-12T11:06:38.777Z,45.26
2023-10-12T11:09:10.931Z,45.28
2023-10-12T11:11:39.528Z,43.82
2023-10-12T11:14:11.552Z,43.62
2023-10-12T11:16:45.257Z,42.52
2023-10-12T11:19:14.890Z,43.40
2023-10-12T11:21:47.465Z,43.64
2023-10-12T11:24:15.793Z,43.13
2023-10-12T11:26:58.814Z,41.67
2023-10-12T11:29:29.155Z,41.81
2023-10-12T11:32:12.942Z,40.39
2023-10-12T11:34:53.850Z,39.96
2023-10-12T11:37:22.211Z,39.51
2023-10-12T11:39:52.389Z,39.85
2023-10-12T11:42:20.662Z,40.24
2023-10-12T11:44:52.616Z,40.94
2023-10-12T11:47:40.730Z,40.49
2023-10-12T11:50:15.238Z,39.40
2023-10-12T11:52:51.403Z,38.98
2023-10-12T11:55:21.302Z,39.50
2023-10-12T11:58:08.565Z,39.49
2023-10-12T12:00:38.352Z,38.81
2023-10-12T12:03:10.129Z,38.90
2023-10-12T12:05:39.046Z,38.72
2023-10-12T12:08:09.470Z,38.53
2023-10-12T12:10:49.086Z,38.57
2023-10-12T12:13:21.762Z,37.94
2023-10-12T12:15:53.103Z,37.73
2023-10-12T12:18:23.316Z,37.41
2023-10-12T12:20:53.724Z,36.94
2023-10-12T12:23:28.441Z,37.42
2023-10-12T12:26:01.124Z,37.11
2023-10-12T12:28:33.514Z,36.80
2023-10-12T12:31:02.274Z,36.64
2023-10-12T12:33:30.669Z,37.06
2023-10-12T12:36:02.409Z,36.94
2023-10-12T12:38:46.056Z,36.65
2023-10-12T12:41:19.750Z,35.57
2023-10-12T12:43:48.867Z,35.71
2023-10-12T12:46:18.669Z,35.98
2023-10-12T12:48:51.505Z,35.03
2023-10-12T12:51:21.193Z,35.29
2023-10-12T12:53:51.501Z,35.07
2023-10-12T12:56:21.692Z,34.61
2023-10-12T12:58:53.116Z,34.53
2023-10-12T13:01:25.146Z,34.44
2023-10-12T13:03:57.064Z,35.13
2023-10-12T13:06:29.189Z,35.11
2023-10-12T13:08:57.565Z,34.49
2023-10-12T13:11:26.546Z,34.53
2023-10-12T13:13:56.343Z,34.21
2023-10-12T13:16:24.705Z,33.65
2023-10-12T13:18:53.191Z,34.45
2023-10-12T13:21:23.765Z,34.41
2023-10-12T13:23:53.241Z,34.10
2023-10-12T13:26:24.478Z,33.36
2023-10-12T13:31:24.648Z,33.86
2023-10-12T13:33:53.400Z,33.70
2023-10-12T13:36:22.868Z,33.85
2023-10-12T13:38:51.102Z,33.93
2023-10-12T13:41:22.148Z,33.74
2023-10-12T13:43:50.643Z,33.54
2023-10-12T13:46:19.422Z,33.25
2023-10-12T13:48:50.672Z,32.92
2023-10-12T13:51:21.624Z,32.67
2023-10-12T13:53:52.423Z,31.72
2023-10-12T13:56:25.677Z,31.28
2023-10-12T13:58:59.632Z,31.10
2023-10-12T14:01:34.713Z,31.30
2023-10-12T14:04:23.894Z,31.69
2023-10-12T14:06:54.415Z,31.52
2023-10-12T14:09:33.239Z,31.32
2023-10-12T14:12:02.044Z,30.81
2023-10-12T14:14:30.588Z,29.82
2023-10-12T14:16:59.164Z,29.04
2023-10-12T14:19:30.648Z,28.26
2023-10-12T14:22:04.952Z,27.27
2023-10-12T14:24:35.290Z,26.77
2023-10-12T14:27:07.804Z,26.73
2023-10-12T14:29:37.611Z,26.55
2023-10-12T14:32:05.968Z,25.97
2023-10-12T14:34:35.208Z,25.67
2023-10-12T14:37:03.456Z,25.34
2023-10-12T14:39:32.991Z,25.64
2023-10-12T14:42:01.435Z,25.94
2023-10-12T14:44:30.303Z,26.00
2023-10-12T14:46:59.986Z,26.36
2023-10-12T14:49:28.363Z,26.69
2023-10-12T14:51:56.582Z,26.80
2023-10-12T14:54:24.836Z,27.12
2023-10-12T14:56:55.244Z,27.46
2023-10-12T14:59:23.720Z,28.30
2023-10-12T15:01:52.862Z,28.73
2023-10-12T15:04:21.959Z,29.25
2023-10-12T15:06:50.594Z,29.81
2023-10-12T15:09:25.302Z,30.68
2023-10-12T15:11:53.760Z,31.40
2023-10-12T15:14:21.916Z,32.29
2023-10-12T15:16:51.554Z,33.03
2023-10-12T15:19:20.726Z,33.87
2023-10-12T15:21:50.507Z,35.10
2023-10-12T15:24:18.822Z,36.52
2023-10-12T15:26:49.020Z,37.07
2023-10-12T15:29:18.628Z,37.61
2023-10-12T15:31:47.350Z,38.32
2023-10-12T15:34:15.671Z,38.98
2023-10-12T15:36:46.102Z,39.37
2023-10-12T15:39:17.271Z,39.71
2023-10-12T15:41:49.457Z,39.81
2023-10-12T15:44:17.455Z,40.25
2023-10-12T15:46:46.401Z,40.77
2023-10-12T15:49:14.469Z,40.82
2023-10-12T15:51:43.194Z,41.02
2023-10-12T15:54:13.519Z,41.31
2023-10-12T15:56:42.028Z,41.72
2023-10-12T15:59:11.223Z,41.92
2023-10-12T16:01:40.209Z,42.16
2023-10-12T16:04:09.838Z,42.58
2023-10-12T16:06:37.899Z,42.95
2023-10-12T16:09:10.450Z,43.43
2023-10-12T16:11:40.309Z,44.03
2023-10-12T16:14:09.430Z,44.29
2023-10-12T16:16:37.876Z,44.82
2023-10-12T16:19:06.521Z,44.96
2023-10-12T16:21:35.142Z,45.11
2023-10-12T16:24:06.177Z,45.45
2023-10-12T16:26:35.555Z,45.77
2023-10-12T16:29:05.606Z,46.08
2023-10-12T16:31:36.457Z,46.25
2023-10-12T16:34:07.825Z,46.30
2023-10-12T16:36:37.206Z,46.38
2023-10-12T16:39:07.862Z,46.66
2023-10-12T16:41:38.713Z,47.03
2023-10-12T16:44:07.126Z,47.16
2023-10-12T16:46:35.625Z,47.48
2023-10-12T16:49:03.915Z,47.71
2023-10-12T16:51:32.162Z,48.31
2023-10-12T16:54:04.851Z,48.48
2023-10-12T16:56:34.291Z,48.88
2023-10-12T16:59:04.075Z,49.18
2023-10-12T17:01:32.289Z,49.23
2023-10-12T17:04:01.501Z,49.28
2023-10-12T17:06:29.838Z,49.49
2023-10-12T17:08:58.195Z,49.63
2023-10-12T17:11:26.780Z,49.93
2023-10-12T17:13:55.167Z,50.37
2023-10-12T17:16:24.039Z,50.20
2023-10-12T17:18:52.549Z,50.50
2023-10-12T17:21:22.512Z,50.38
2023-10-12T17:23:50.966Z,50.52
2023-10-12T17:26:19.270Z,50.60
2023-10-12T17:28:47.616Z,50.75
2023-10-12T17:31:18.039Z,51.23
2023-10-12T17:33:46.507Z,51.24
2023-10-12T17:36:16.374Z,51.21
2023-10-12T17:38:46.074Z,51.21
2023-10-12T17:41:19.764Z,51.31
2023-10-12T17:43:52.312Z,51.37
2023-10-12T17:46:21.876Z,51.87
2023-10-12T17:48:54.814Z,51.82
2023-10-12T17:51:23.570Z,52.00
2023-10-12T17:53:51.886Z,52.08
2023-10-12T17:56:21.089Z,52.30
2023-10-12T17:58:49.595Z,52.63
2023-10-12T18:01:19.526Z,53.20
2023-10-12T18:03:50.102Z,53.54
2023-10-12T18:06:18.417Z,53.82
2023-10-12T18:08:48.621Z,54.37
2023-10-12T18:11:17.306Z,55.01
2023-10-12T18:13:46.555Z,55.59
2023-10-12T18:16:16.060Z,56.36
2023-10-12T18:18:44.807Z,56.65
2023-10-12T18:21:13.667Z,56.97
2023-10-12T18:23:41.974Z,57.35
2023-10-12T18:26:11.818Z,57.82
2023-10-12T18:28:40.767Z,58.95
2023-10-12T18:31:11.227Z,59.61
2023-10-12T18:33:41.137Z,59.89
2023-10-12T18:36:12.036Z,59.67
2023-10-12T18:38:44.095Z,60.00
2023-10-12T18:41:17.387Z,59.88
2023-10-12T18:43:49.888Z,60.49
2023-10-12T18:46:21.295Z,60.90
2023-10-12T18:48:51.695Z,61.29
2023-10-12T18:51:22.213Z,61.60
2023-10-12T18:53:51.696Z,61.89
2023-10-12T18:56:21.690Z,62.24
2023-10-12T18:58:51.213Z,62.87
2023-10-12T19:01:20.146Z,63.36
2023-10-12T19:03:48.635Z,63.06
2023-10-12T19:06:17.086Z,63.76
2023-10-12T19:08:45.724Z,63.61
2023-10-12T19:11:14.180Z,64.27
2023-10-12T19:13:47.483Z,65.15
2023-10-12T19:16:19.510Z,64.84
2023-10-12T19:18:49.324Z,64.92
2023-10-12T19:21:19.446Z,65.42
2023-10-12T19:23:47.965Z,65.73
2023-10-12T19:26:16.275Z,65.83
2023-10-12T19:28:45.736Z,66.37
2023-10-12T19:31:16.620Z,66.26
2023-10-12T19:33:45.908Z,65.78
2023-10-12T19:36:14.674Z,66.08
2023-10-12T19:38:43.257Z,65.99
2023-10-12T19:41:11.769Z,66.06
2023-10-12T19:43:41.419Z,66.47
2023-10-12T19:46:12.173Z,66.39
2023-10-12T19:48:41.195Z,67.20
2023-10-12T19:51:14.121Z,66.74
2023-10-12T19:53:43.883Z,67.05
2023-10-12T19:56:16.163Z,67.45
2023-10-12T19:58:46.257Z,67.40
2023-10-12T20:01:16.215Z,67.09
2023-10-12T20:03:46.989Z,67.55
2023-10-12T20:06:15.410Z,67.57
2023-10-12T20:08:50.937Z,67.66
2023-10-12T20:11:19.546Z,68.14
2023-10-12T20:13:50.315Z,68.73
2023-10-12T20:16:22.700Z,68.73
2023-10-12T20:18:51.429Z,68.72
2023-10-12T20:21:21.478Z,68.88
2023-10-12T20:23:50.540Z,69.56
2023-10-12T20:26:19.488Z,70.08
2023-10-12T20:28:48.112Z,70.27
2023-10-12T20:31:16.675Z,70.11
2023-10-12T20:33:45.285Z,70.01
2023-10-12T20:36:14.697Z,70.81
2023-10-12T20:38:43.059Z,71.27
2023-10-12T20:41:11.912Z,71.03
2023-10-12T20:43:40.478Z,71.03
2023-10-12T20:46:11.063Z,70.69
2023-10-12T20:48:41.098Z,70.67
2023-10-12T20:51:09.865Z,70.62
2023-10-12T20:53:38.372Z,70.50
2023-10-12T20:56:10.097Z,71.00
2023-10-12T20:58:42.035Z,70.82
2023-10-12T21:01:22.122Z,70.90
2023-10-12T21:04:02.216Z,70.77
2023-10-12T21:06:32.295Z,70.65
2023-10-12T21:09:12.460Z,70.45
2023-10-12T21:11:46.941Z,70.11
2023-10-12T21:14:26.280Z,70.57
2023-10-12T21:16:56.371Z,70.68
2023-10-12T21:19:27.218Z,70.92
2023-10-12T21:21:56.310Z,70.70
2023-10-12T21:24:38.378Z,70.59
2023-10-12T21:27:10.429Z,70.58
2023-10-12T21:29:38.936Z,70.55
2023-10-12T21:32:10.282Z,70.62
2023-10-12T21:34:39.267Z,70.58
2023-10-12T21:37:07.703Z,70.71
2023-10-12T21:39:37.173Z,70.96
2023-10-12T21:42:11.167Z,70.87
2023-10-12T21:44:41.277Z,71.06
2023-10-12T21:47:12.056Z,71.92
2023-10-12T21:49:41.323Z,72.20
2023-10-12T21:52:09.890Z,71.94
2023-10-12T21:54:38.400Z,71.95
2023-10-12T21:57:11.220Z,72.39
2023-10-12T21:59:40.200Z,72.16
2023-10-12T22:02:17.924Z,71.77
2023-10-12T22:04:49.062Z,71.86
2023-10-12T22:07:18.303Z,72.15
2023-10-12T22:09:47.670Z,72.16
2023-10-12T22:12:20.800Z,72.08
2023-10-12T22:15:01.366Z,71.93
2023-10-12T22:17:30.631Z,71.63
2023-10-12T22:19:59.382Z,71.64
2023-10-12T22:22:29.052Z,71.69
2023-10-12T22:24:57.389Z,71.72
2023-10-12T22:27:29.517Z,71.89
2023-10-12T22:29:59.869Z,71.85
2023-10-12T22:32:28.217Z,71.75
2023-10-12T22:34:56.610Z,72.06
2023-10-12T22:37:24.821Z,72.30
2023-10-12T22:39:53.068Z,72.36
2023-10-12T22:42:21.336Z,72.24
2023-10-12T22:44:49.730Z,72.35
2023-10-12T22:47:19.417Z,72.28
2023-10-12T22:49:48.506Z,72.10
2023-10-12T22:52:16.798Z,72.19
2023-10-12T22:54:45.200Z,72.50
2023-10-12T22:57:14.603Z,72.81
2023-10-12T22:59:42.964Z,73.03
2023-10-12T23:02:13.103Z,73.04
2023-10-12T23:04:41.482Z,73.35
2023-10-12T23:07:10.428Z,73.37
2023-10-12T23:09:38.650Z,73.55
2023-10-12T23:12:12.811Z,73.70
2023-10-12T23:14:46.126Z,73.80
2023-10-12T23:17:16.307Z,73.79
2023-10-12T23:19:45.916Z,73.84
2023-10-12T23:22:34.264Z,73.62
2023-10-12T23:25:07.242Z,73.50
2023-10-12T23:27:37.578Z,73.80
2023-10-12T23:30:19.161Z,73.67
2023-10-12T23:32:49.954Z,74.02
2023-10-12T23:35:28.198Z,74.18
2023-10-12T23:37:59.740Z,73.97
2023-10-12T23:40:30.272Z,73.92
2023-10-12T23:43:00.215Z,73.65
2023-10-12T23:45:36.822Z,73.66
2023-10-12T23:48:09.190Z,74.03
2023-10-12T23:50:44.617Z,73.72
2023-10-12T23:53:19.829Z,73.48
2023-10-12T23:55:48.218Z,73.52
2023-10-12T23:58:16.463Z,73.67
